sensor_id;sensor_type;location;lat;lon;timestamp;temperature;humidity
5226;DHT22;2632;51.666;7.146;2023-05-10T00:01:13;14.80;99.90
5226;DHT22;2632;51.666;7.146;2023-05-10T00:03:40;14.80;99.90
5226;DHT22;2632;51.666;7.146;2023-05-10T00:06:07;14.70;99.90
5226;DHT22;2632;51.666;7.146;2023-05-10T00:08:33;14.80;99.90
5226;DHT22;2632;51.666;7.146;2023-05-10T00:11:00;14.80;99.90
5226;DHT22;2632;51.666;7.146;2023-05-10T00:13:27;14.80;99.90
5226;DHT22;2632;51.666;7.146;2023-05-10T00:15:53;14.70;99.90
5226;DHT22;2632;51.666;7.146;2023-05-10T00:18:20;14.70;99.90
5226;DHT22;2632;51.666;7.146;2023-05-10T00:20:47;14.70;99.90
5226;DHT22;2632;51.666;7.146;2023-05-10T00:23:15;14.70;99.90
5226;DHT22;2632;51.666;7.146;2023-05-10T00:25:41;14.70;99.90
5226;DHT22;2632;51.666;7.146;2023-05-10T00:28:08;14.70;99.90
5226;DHT22;2632;51.666;7.146;2023-05-10T00:30:34;14.60;99.90
5226;DHT22;2632;51.666;7.146;2023-05-10T00:33:01;14.60;99.90
5226;DHT22;2632;51.666;7.146;2023-05-10T00:35:28;14.70;99.90
5226;DHT22;2632;51.666;7.146;2023-05-10T00:37:54;14.70;99.90
5226;DHT22;2632;51.666;7.146;2023-05-10T00:40:21;14.70;99.90
5226;DHT22;2632;51.666;7.146;2023-05-10T00:42:47;14.60;99.90
5226;DHT22;2632;51.666;7.146;2023-05-10T00:45:14;14.60;99.90
5226;DHT22;2632;51.666;7.146;2023-05-10T00:47:41;14.60;99.90
5226;DHT22;2632;51.666;7.146;2023-05-10T00:50:08;14.60;99.90
5226;DHT22;2632;51.666;7.146;2023-05-10T00:52:35;14.50;99.90
5226;DHT22;2632;51.666;7.146;2023-05-10T00:55:02;14.60;99.90
5226;DHT22;2632;51.666;7.146;2023-05-10T00:57:29;14.50;99.90
5226;DHT22;2632;51.666;7.146;2023-05-10T00:59:57;14.50;99.90
5226;DHT22;2632;51.666;7.146;2023-05-10T01:02:24;14.50;99.90
5226;DHT22;2632;51.666;7.146;2023-05-10T01:04:51;14.50;99.90
5226;DHT22;2632;51.666;7.146;2023-05-10T01:07:18;14.60;99.90
5226;DHT22;2632;51.666;7.146;2023-05-10T01:09:45;14.50;99.90
5226;DHT22;2632;51.666;7.146;2023-05-10T01:12:12;14.60;99.90
5226;DHT22;2632;51.666;7.146;2023-05-10T01:14:39;14.60;99.90
5226;DHT22;2632;51.666;7.146;2023-05-10T01:17:06;14.60;99.90
5226;DHT22;2632;51.666;7.146;2023-05-10T01:19:34;14.60;99.90
5226;DHT22;2632;51.666;7.146;2023-05-10T01:22:39;14.50;99.90
5226;DHT22;2632;51.666;7.146;2023-05-10T01:31:06;14.30;99.90
5226;DHT22;2632;51.666;7.146;2023-05-10T01:33:51;14.20;99.90
5226;DHT22;2632;51.666;7.146;2023-05-10T01:36:31;14.20;99.90
5226;DHT22;2632;51.666;7.146;2023-05-10T01:39:01;14.20;99.90
5226;DHT22;2632;51.666;7.146;2023-05-10T01:42:04;14.10;99.90
5226;DHT22;2632;51.666;7.146;2023-05-10T01:47:42;14.10;99.90
5226;DHT22;2632;51.666;7.146;2023-05-10T01:50:15;14.00;99.90
5226;DHT22;2632;51.666;7.146;2023-05-10T01:52:46;14.10;99.90
5226;DHT22;2632;51.666;7.146;2023-05-10T01:55:16;14.00;99.90
5226;DHT22;2632;51.666;7.146;2023-05-10T01:57:46;13.90;99.90
5226;DHT22;2632;51.666;7.146;2023-05-10T02:00:13;13.90;99.90
5226;DHT22;2632;51.666;7.146;2023-05-10T02:02:45;13.90;99.90
5226;DHT22;2632;51.666;7.146;2023-05-10T02:05:17;13.90;99.90
5226;DHT22;2632;51.666;7.146;2023-05-10T02:07:45;13.90;99.90
5226;DHT22;2632;51.666;7.146;2023-05-10T02:10:12;13.90;99.90
5226;DHT22;2632;51.666;7.146;2023-05-10T02:12:42;13.90;99.90
5226;DHT22;2632;51.666;7.146;2023-05-10T02:15:11;13.90;99.90
5226;DHT22;2632;51.666;7.146;2023-05-10T02:17:39;13.90;99.90
5226;DHT22;2632;51.666;7.146;2023-05-10T02:20:09;13.90;99.90
5226;DHT22;2632;51.666;7.146;2023-05-10T02:22:37;13.90;99.90
5226;DHT22;2632;51.666;7.146;2023-05-10T02:25:06;13.90;99.90
5226;DHT22;2632;51.666;7.146;2023-05-10T02:27:35;13.90;99.90
5226;DHT22;2632;51.666;7.146;2023-05-10T02:30:04;13.80;99.90
5226;DHT22;2632;51.666;7.146;2023-05-10T02:32:31;13.80;99.90
5226;DHT22;2632;51.666;7.146;2023-05-10T02:35:00;13.80;99.90
5226;DHT22;2632;51.666;7.146;2023-05-10T02:37:28;13.80;99.90
5226;DHT22;2632;51.666;7.146;2023-05-10T02:39:55;13.80;99.90
5226;DHT22;2632;51.666;7.146;2023-05-10T02:42:26;13.80;99.90
5226;DHT22;2632;51.666;7.146;2023-05-10T02:44:59;13.80;99.90
5226;DHT22;2632;51.666;7.146;2023-05-10T02:47:27;13.90;99.90
5226;DHT22;2632;51.666;7.146;2023-05-10T02:49:54;13.80;99.90
5226;DHT22;2632;51.666;7.146;2023-05-10T02:52:27;13.80;99.90
5226;DHT22;2632;51.666;7.146;2023-05-10T02:54:57;13.80;99.90
5226;DHT22;2632;51.666;7.146;2023-05-10T02:57:33;13.80;99.90
5226;DHT22;2632;51.666;7.146;2023-05-10T03:00:01;13.70;99.90
5226;DHT22;2632;51.666;7.146;2023-05-10T03:02:29;13.70;99.90
5226;DHT22;2632;51.666;7.146;2023-05-10T03:04:57;13.70;99.90
5226;DHT22;2632;51.666;7.146;2023-05-10T03:07:23;13.70;99.90
5226;DHT22;2632;51.666;7.146;2023-05-10T03:09:50;13.60;99.90
5226;DHT22;2632;51.666;7.146;2023-05-10T03:18:21;13.70;99.90
5226;DHT22;2632;51.666;7.146;2023-05-10T03:20:50;13.70;99.90
5226;DHT22;2632;51.666;7.146;2023-05-10T03:25:44;13.70;99.90
5226;DHT22;2632;51.666;7.146;2023-05-10T03:28:14;13.70;99.90
5226;DHT22;2632;51.666;7.146;2023-05-10T03:30:43;13.70;99.90
5226;DHT22;2632;51.666;7.146;2023-05-10T03:33:09;13.70;99.90
5226;DHT22;2632;51.666;7.146;2023-05-10T03:35:37;13.70;99.90
5226;DHT22;2632;51.666;7.146;2023-05-10T03:38:03;13.70;99.90
5226;DHT22;2632;51.666;7.146;2023-05-10T03:40:30;13.70;99.90
5226;DHT22;2632;51.666;7.146;2023-05-10T03:42:59;13.70;99.90
5226;DHT22;2632;51.666;7.146;2023-05-10T03:45:26;13.70;99.90
5226;DHT22;2632;51.666;7.146;2023-05-10T03:47:53;13.70;99.90
5226;DHT22;2632;51.666;7.146;2023-05-10T03:50:20;13.60;99.90
5226;DHT22;2632;51.666;7.146;2023-05-10T03:52:47;13.60;99.90
5226;DHT22;2632;51.666;7.146;2023-05-10T03:55:14;13.60;99.90
5226;DHT22;2632;51.666;7.146;2023-05-10T03:57:41;13.70;99.90
5226;DHT22;2632;51.666;7.146;2023-05-10T04:00:08;13.70;99.90
5226;DHT22;2632;51.666;7.146;2023-05-10T04:02:35;13.80;99.90
5226;DHT22;2632;51.666;7.146;2023-05-10T04:05:03;13.70;99.90
5226;DHT22;2632;51.666;7.146;2023-05-10T04:07:30;13.70;99.90
5226;DHT22;2632;51.666;7.146;2023-05-10T04:09:56;13.70;99.90
5226;DHT22;2632;51.666;7.146;2023-05-10T04:12:23;13.70;99.90
5226;DHT22;2632;51.666;7.146;2023-05-10T04:14:50;13.70;99.90
5226;DHT22;2632;51.666;7.146;2023-05-10T04:17:17;13.70;99.90
5226;DHT22;2632;51.666;7.146;2023-05-10T04:19:46;13.80;99.90
5226;DHT22;2632;51.666;7.146;2023-05-10T04:22:13;13.80;99.90
5226;DHT22;2632;51.666;7.146;2023-05-10T04:24:40;13.80;99.90
5226;DHT22;2632;51.666;7.146;2023-05-10T04:27:06;13.90;99.90
5226;DHT22;2632;51.666;7.146;2023-05-10T04:29:33;13.90;99.90
5226;DHT22;2632;51.666;7.146;2023-05-10T04:31:59;13.80;99.90
5226;DHT22;2632;51.666;7.146;2023-05-10T04:34:26;13.70;99.90
5226;DHT22;2632;51.666;7.146;2023-05-10T04:36:52;13.80;99.90
5226;DHT22;2632;51.666;7.146;2023-05-10T04:39:19;13.90;99.90
5226;DHT22;2632;51.666;7.146;2023-05-10T04:41:46;13.80;99.90
5226;DHT22;2632;51.666;7.146;2023-05-10T04:44:12;13.80;99.90
5226;DHT22;2632;51.666;7.146;2023-05-10T04:46:39;13.80;99.90
5226;DHT22;2632;51.666;7.146;2023-05-10T04:49:06;13.80;99.90
5226;DHT22;2632;51.666;7.146;2023-05-10T04:51:32;13.80;99.90
5226;DHT22;2632;51.666;7.146;2023-05-10T04:53:59;13.90;99.90
5226;DHT22;2632;51.666;7.146;2023-05-10T04:56:32;13.90;99.90
5226;DHT22;2632;51.666;7.146;2023-05-10T04:58:59;14.00;99.90
5226;DHT22;2632;51.666;7.146;2023-05-10T05:01:25;14.00;99.90
5226;DHT22;2632;51.666;7.146;2023-05-10T05:03:52;14.00;99.90
5226;DHT22;2632;51.666;7.146;2023-05-10T05:06:19;14.00;99.90
5226;DHT22;2632;51.666;7.146;2023-05-10T05:08:47;14.00;99.90
5226;DHT22;2632;51.666;7.146;2023-05-10T05:11:16;13.90;99.90
5226;DHT22;2632;51.666;7.146;2023-05-10T05:13:43;14.00;99.90
5226;DHT22;2632;51.666;7.146;2023-05-10T05:16:09;14.00;99.90
5226;DHT22;2632;51.666;7.146;2023-05-10T05:18:37;14.10;99.90
5226;DHT22;2632;51.666;7.146;2023-05-10T05:21:16;14.10;99.90
5226;DHT22;2632;51.666;7.146;2023-05-10T05:23:43;14.00;99.90
5226;DHT22;2632;51.666;7.146;2023-05-10T05:26:10;14.10;99.90
5226;DHT22;2632;51.666;7.146;2023-05-10T05:28:37;14.10;99.90
5226;DHT22;2632;51.666;7.146;2023-05-10T05:31:04;14.10;99.90
5226;DHT22;2632;51.666;7.146;2023-05-10T05:33:32;14.10;99.90
5226;DHT22;2632;51.666;7.146;2023-05-10T05:36:01;14.10;99.90
5226;DHT22;2632;51.666;7.146;2023-05-10T05:38:27;14.10;99.90
5226;DHT22;2632;51.666;7.146;2023-05-10T05:40:54;14.10;99.90
5226;DHT22;2632;51.666;7.146;2023-05-10T05:43:21;14.10;99.90
5226;DHT22;2632;51.666;7.146;2023-05-10T05:45:48;14.10;99.90
5226;DHT22;2632;51.666;7.146;2023-05-10T05:50:41;14.20;99.90
5226;DHT22;2632;51.666;7.146;2023-05-10T05:53:08;14.20;99.90
5226;DHT22;2632;51.666;7.146;2023-05-10T05:55:37;14.20;99.90
5226;DHT22;2632;51.666;7.146;2023-05-10T05:58:04;14.20;99.90
5226;DHT22;2632;51.666;7.146;2023-05-10T06:00:31;14.30;99.90
5226;DHT22;2632;51.666;7.146;2023-05-10T06:02:57;14.30;99.90
5226;DHT22;2632;51.666;7.146;2023-05-10T06:05:24;15.10;99.90
5226;DHT22;2632;51.666;7.146;2023-05-10T06:07:50;14.30;99.90
5226;DHT22;2632;51.666;7.146;2023-05-10T06:10:17;14.30;99.90
5226;DHT22;2632;51.666;7.146;2023-05-10T06:12:44;14.20;99.90
5226;DHT22;2632;51.666;7.146;2023-05-10T06:15:10;14.20;99.90
5226;DHT22;2632;51.666;7.146;2023-05-10T06:17:37;14.20;99.90
5226;DHT22;2632;51.666;7.146;2023-05-10T06:20:05;14.20;99.90
5226;DHT22;2632;51.666;7.146;2023-05-10T06:22:32;14.30;99.90
5226;DHT22;2632;51.666;7.146;2023-05-10T06:24:59;14.40;99.90
5226;DHT22;2632;51.666;7.146;2023-05-10T06:27:25;14.40;99.90
5226;DHT22;2632;51.666;7.146;2023-05-10T06:29:52;14.40;99.90
5226;DHT22;2632;51.666;7.146;2023-05-10T06:32:34;14.40;99.90
5226;DHT22;2632;51.666;7.146;2023-05-10T06:35:01;14.40;99.90
5226;DHT22;2632;51.666;7.146;2023-05-10T06:37:28;14.50;99.90
5226;DHT22;2632;51.666;7.146;2023-05-10T06:39:55;14.60;99.90
5226;DHT22;2632;51.666;7.146;2023-05-10T06:42:21;14.70;99.90
5226;DHT22;2632;51.666;7.146;2023-05-10T06:44:48;14.90;99.90
5226;DHT22;2632;51.666;7.146;2023-05-10T06:47:14;14.90;99.90
5226;DHT22;2632;51.666;7.146;2023-05-10T06:49:41;14.90;99.90
5226;DHT22;2632;51.666;7.146;2023-05-10T06:52:07;15.00;99.90
5226;DHT22;2632;51.666;7.146;2023-05-10T06:54:34;15.10;99.90
5226;DHT22;2632;51.666;7.146;2023-05-10T06:57:01;15.20;99.90
5226;DHT22;2632;51.666;7.146;2023-05-10T06:59:34;15.10;99.90
5226;DHT22;2632;51.666;7.146;2023-05-10T07:02:00;15.20;99.90
5226;DHT22;2632;51.666;7.146;2023-05-10T07:04:28;15.30;99.90
5226;DHT22;2632;51.666;7.146;2023-05-10T07:06:57;15.50;99.90
5226;DHT22;2632;51.666;7.146;2023-05-10T07:09:24;15.70;99.90
5226;DHT22;2632;51.666;7.146;2023-05-10T07:11:50;15.70;99.90
5226;DHT22;2632;51.666;7.146;2023-05-10T07:14:17;15.90;99.90
5226;DHT22;2632;51.666;7.146;2023-05-10T07:16:43;15.90;99.90
5226;DHT22;2632;51.666;7.146;2023-05-10T07:19:13;15.80;99.90
5226;DHT22;2632;51.666;7.146;2023-05-10T07:21:39;15.80;99.90
5226;DHT22;2632;51.666;7.146;2023-05-10T07:24:09;16.00;99.90
5226;DHT22;2632;51.666;7.146;2023-05-10T07:26:35;16.20;99.90
5226;DHT22;2632;51.666;7.146;2023-05-10T07:29:02;16.50;99.90
5226;DHT22;2632;51.666;7.146;2023-05-10T07:31:29;16.50;99.90
5226;DHT22;2632;51.666;7.146;2023-05-10T07:33:55;17.00;99.90
5226;DHT22;2632;51.666;7.146;2023-05-10T07:36:22;17.40;99.90
5226;DHT22;2632;51.666;7.146;2023-05-10T07:38:49;17.80;99.90
5226;DHT22;2632;51.666;7.146;2023-05-10T07:41:16;17.80;99.90
5226;DHT22;2632;51.666;7.146;2023-05-10T07:43:42;17.70;99.90
5226;DHT22;2632;51.666;7.146;2023-05-10T07:46:09;17.50;99.90
5226;DHT22;2632;51.666;7.146;2023-05-10T07:48:37;17.90;99.90
5226;DHT22;2632;51.666;7.146;2023-05-10T07:51:03;18.10;99.90
5226;DHT22;2632;51.666;7.146;2023-05-10T07:53:30;18.10;99.90
5226;DHT22;2632;51.666;7.146;2023-05-10T07:55:58;18.20;99.90
5226;DHT22;2632;51.666;7.146;2023-05-10T07:58:25;18.00;99.90
5226;DHT22;2632;51.666;7.146;2023-05-10T08:00:52;17.80;99.90
5226;DHT22;2632;51.666;7.146;2023-05-10T08:03:18;17.90;99.90
5226;DHT22;2632;51.666;7.146;2023-05-10T08:05:46;18.40;99.90
5226;DHT22;2632;51.666;7.146;2023-05-10T08:08:12;18.70;99.90
5226;DHT22;2632;51.666;7.146;2023-05-10T08:10:39;18.50;99.90
5226;DHT22;2632;51.666;7.146;2023-05-10T08:13:05;18.20;99.90
5226;DHT22;2632;51.666;7.146;2023-05-10T08:15:32;18.30;99.90
5226;DHT22;2632;51.666;7.146;2023-05-10T08:17:59;18.00;99.90
5226;DHT22;2632;51.666;7.146;2023-05-10T08:20:25;17.60;99.90
5226;DHT22;2632;51.666;7.146;2023-05-10T08:22:52;17.50;99.90
5226;DHT22;2632;51.666;7.146;2023-05-10T08:25:19;17.20;99.90
5226;DHT22;2632;51.666;7.146;2023-05-10T08:27:46;17.20;99.90
5226;DHT22;2632;51.666;7.146;2023-05-10T08:30:13;17.00;99.90
5226;DHT22;2632;51.666;7.146;2023-05-10T08:32:39;17.00;99.90
5226;DHT22;2632;51.666;7.146;2023-05-10T08:35:06;17.00;99.90
5226;DHT22;2632;51.666;7.146;2023-05-10T08:37:33;17.20;99.90
5226;DHT22;2632;51.666;7.146;2023-05-10T08:40:00;17.60;99.90
5226;DHT22;2632;51.666;7.146;2023-05-10T08:42:28;18.10;99.90
5226;DHT22;2632;51.666;7.146;2023-05-10T08:44:57;18.10;99.90
5226;DHT22;2632;51.666;7.146;2023-05-10T08:47:25;18.00;99.90
5226;DHT22;2632;51.666;7.146;2023-05-10T08:49:52;17.70;99.90
5226;DHT22;2632;51.666;7.146;2023-05-10T08:52:21;17.70;99.90
5226;DHT22;2632;51.666;7.146;2023-05-10T08:54:49;17.50;99.90
5226;DHT22;2632;51.666;7.146;2023-05-10T08:57:16;17.50;99.90
5226;DHT22;2632;51.666;7.146;2023-05-10T08:59:43;17.50;99.90
5226;DHT22;2632;51.666;7.146;2023-05-10T09:02:11;17.60;99.90
5226;DHT22;2632;51.666;7.146;2023-05-10T09:04:40;17.70;99.90
5226;DHT22;2632;51.666;7.146;2023-05-10T09:07:08;17.90;99.90
5226;DHT22;2632;51.666;7.146;2023-05-10T09:09:35;19.90;99.90
5226;DHT22;2632;51.666;7.146;2023-05-10T09:12:03;21.70;99.60
5226;DHT22;2632;51.666;7.146;2023-05-10T09:14:30;23.50;93.70
5226;DHT22;2632;51.666;7.146;2023-05-10T09:16:57;22.40;93.60
5226;DHT22;2632;51.666;7.146;2023-05-10T09:19:24;21.10;96.40
5226;DHT22;2632;51.666;7.146;2023-05-10T09:21:50;20.30;99.50
5226;DHT22;2632;51.666;7.146;2023-05-10T09:24:17;19.60;99.90
5226;DHT22;2632;51.666;7.146;2023-05-10T09:26:48;19.10;99.90
5226;DHT22;2632;51.666;7.146;2023-05-10T09:29:15;18.70;99.90
5226;DHT22;2632;51.666;7.146;2023-05-10T09:31:52;18.60;99.90
5226;DHT22;2632;51.666;7.146;2023-05-10T09:34:31;18.50;99.90
5226;DHT22;2632;51.666;7.146;2023-05-10T09:37:01;18.40;99.90
5226;DHT22;2632;51.666;7.146;2023-05-10T09:39:35;18.20;99.90
5226;DHT22;2632;51.666;7.146;2023-05-10T09:42:09;18.30;99.90
5226;DHT22;2632;51.666;7.146;2023-05-10T09:44:36;18.20;99.90
5226;DHT22;2632;51.666;7.146;2023-05-10T09:47:04;18.30;99.90
5226;DHT22;2632;51.666;7.146;2023-05-10T09:49:31;18.30;99.90
5226;DHT22;2632;51.666;7.146;2023-05-10T09:52:06;18.10;99.90
5226;DHT22;2632;51.666;7.146;2023-05-10T09:54:33;18.00;99.90
5226;DHT22;2632;51.666;7.146;2023-05-10T09:57:00;18.10;99.90
5226;DHT22;2632;51.666;7.146;2023-05-10T09:59:28;18.20;99.90
5226;DHT22;2632;51.666;7.146;2023-05-10T10:01:59;18.40;99.90
5226;DHT22;2632;51.666;7.146;2023-05-10T10:04:26;18.40;99.90
5226;DHT22;2632;51.666;7.146;2023-05-10T10:07:01;18.10;99.90
5226;DHT22;2632;51.666;7.146;2023-05-10T10:09:31;17.80;99.90
5226;DHT22;2632;51.666;7.146;2023-05-10T10:11:59;17.60;99.90
5226;DHT22;2632;51.666;7.146;2023-05-10T10:14:26;17.60;99.90
5226;DHT22;2632;51.666;7.146;2023-05-10T10:16:53;17.60;99.90
5226;DHT22;2632;51.666;7.146;2023-05-10T10:19:34;17.80;99.90
5226;DHT22;2632;51.666;7.146;2023-05-10T10:22:04;18.10;99.90
5226;DHT22;2632;51.666;7.146;2023-05-10T10:24:31;18.40;99.90
5226;DHT22;2632;51.666;7.146;2023-05-10T10:27:15;18.30;99.90
5226;DHT22;2632;51.666;7.146;2023-05-10T10:30:13;18.20;99.90
5226;DHT22;2632;51.666;7.146;2023-05-10T10:35:43;18.00;99.90
5226;DHT22;2632;51.666;7.146;2023-05-10T10:38:12;18.00;99.90
5226;DHT22;2632;51.666;7.146;2023-05-10T10:40:39;18.20;99.90
5226;DHT22;2632;51.666;7.146;2023-05-10T10:43:27;18.50;99.90
5226;DHT22;2632;51.666;7.146;2023-05-10T10:48:47;19.00;99.90
5226;DHT22;2632;51.666;7.146;2023-05-10T10:51:14;20.00;99.90
5226;DHT22;2632;51.666;7.146;2023-05-10T10:53:41;20.10;99.90
5226;DHT22;2632;51.666;7.146;2023-05-10T10:56:11;19.90;99.90
5226;DHT22;2632;51.666;7.146;2023-05-10T10:58:38;20.00;99.90
5226;DHT22;2632;51.666;7.146;2023-05-10T11:06:34;17.80;99.90
5226;DHT22;2632;51.666;7.146;2023-05-10T11:09:08;17.70;99.90
5226;DHT22;2632;51.666;7.146;2023-05-10T11:11:36;17.70;99.90
5226;DHT22;2632;51.666;7.146;2023-05-10T11:14:07;17.80;99.90
5226;DHT22;2632;51.666;7.146;2023-05-10T11:16:43;17.80;99.90
5226;DHT22;2632;51.666;7.146;2023-05-10T11:19:12;17.80;99.90
5226;DHT22;2632;51.666;7.146;2023-05-10T11:22:11;18.00;99.90
5226;DHT22;2632;51.666;7.146;2023-05-10T11:24:39;18.00;99.90
5226;DHT22;2632;51.666;7.146;2023-05-10T11:27:06;18.10;99.90
5226;DHT22;2632;51.666;7.146;2023-05-10T11:29:32;18.30;99.90
5226;DHT22;2632;51.666;7.146;2023-05-10T11:34:31;18.20;99.90
5226;DHT22;2632;51.666;7.146;2023-05-10T11:37:00;18.30;99.90
5226;DHT22;2632;51.666;7.146;2023-05-10T11:39:28;18.50;99.90
5226;DHT22;2632;51.666;7.146;2023-05-10T11:41:55;18.70;99.90
5226;DHT22;2632;51.666;7.146;2023-05-10T11:44:22;18.90;99.90
5226;DHT22;2632;51.666;7.146;2023-05-10T11:46:49;19.10;99.90
5226;DHT22;2632;51.666;7.146;2023-05-10T11:49:15;19.30;99.90
5226;DHT22;2632;51.666;7.146;2023-05-10T11:51:42;19.20;99.90
5226;DHT22;2632;51.666;7.146;2023-05-10T11:54:10;19.50;99.50
5226;DHT22;2632;51.666;7.146;2023-05-10T11:56:38;19.40;99.20
5226;DHT22;2632;51.666;7.146;2023-05-10T11:59:06;19.00;99.90
5226;DHT22;2632;51.666;7.146;2023-05-10T12:01:33;18.60;99.90
5226;DHT22;2632;51.666;7.146;2023-05-10T12:04:00;18.70;99.90
5226;DHT22;2632;51.666;7.146;2023-05-10T12:06:28;18.70;99.90
5226;DHT22;2632;51.666;7.146;2023-05-10T12:08:56;18.50;99.90
5226;DHT22;2632;51.666;7.146;2023-05-10T12:11:27;18.50;99.90
5226;DHT22;2632;51.666;7.146;2023-05-10T12:13:54;18.50;99.90
5226;DHT22;2632;51.666;7.146;2023-05-10T12:16:28;18.70;99.90
5226;DHT22;2632;51.666;7.146;2023-05-10T12:18:57;18.70;99.90
5226;DHT22;2632;51.666;7.146;2023-05-10T12:21:24;18.90;99.90
5226;DHT22;2632;51.666;7.146;2023-05-10T12:23:53;19.20;99.90
5226;DHT22;2632;51.666;7.146;2023-05-10T12:26:28;19.40;99.70
5226;DHT22;2632;51.666;7.146;2023-05-10T12:28:55;19.50;99.60
5226;DHT22;2632;51.666;7.146;2023-05-10T12:31:56;19.30;99.30
5226;DHT22;2632;51.666;7.146;2023-05-10T12:34:33;19.30;99.50
5226;DHT22;2632;51.666;7.146;2023-05-10T12:37:00;19.20;99.50
5226;DHT22;2632;51.666;7.146;2023-05-10T12:39:42;19.40;98.80
5226;DHT22;2632;51.666;7.146;2023-05-10T12:42:09;19.50;98.40
5226;DHT22;2632;51.666;7.146;2023-05-10T12:44:36;19.80;97.70
5226;DHT22;2632;51.666;7.146;2023-05-10T12:47:02;20.00;97.00
5226;DHT22;2632;51.666;7.146;2023-05-10T12:49:29;20.20;96.10
5226;DHT22;2632;51.666;7.146;2023-05-10T12:51:56;20.40;96.60
5226;DHT22;2632;51.666;7.146;2023-05-10T12:54:22;20.30;96.20
5226;DHT22;2632;51.666;7.146;2023-05-10T12:56:49;20.60;97.00
5226;DHT22;2632;51.666;7.146;2023-05-10T12:59:16;20.80;96.40
5226;DHT22;2632;51.666;7.146;2023-05-10T13:01:42;20.90;95.60
5226;DHT22;2632;51.666;7.146;2023-05-10T13:04:09;20.90;95.50
5226;DHT22;2632;51.666;7.146;2023-05-10T13:06:36;20.70;94.90
5226;DHT22;2632;51.666;7.146;2023-05-10T13:09:02;20.50;95.50
5226;DHT22;2632;51.666;7.146;2023-05-10T13:11:29;20.50;95.90
5226;DHT22;2632;51.666;7.146;2023-05-10T13:13:56;20.60;97.50
5226;DHT22;2632;51.666;7.146;2023-05-10T13:16:23;20.70;94.70
5226;DHT22;2632;51.666;7.146;2023-05-10T13:18:49;21.40;94.80
5226;DHT22;2632;51.666;7.146;2023-05-10T13:21:16;21.70;93.50
5226;DHT22;2632;51.666;7.146;2023-05-10T13:23:42;21.30;91.00
5226;DHT22;2632;51.666;7.146;2023-05-10T13:26:09;21.10;93.10
5226;DHT22;2632;51.666;7.146;2023-05-10T13:28:36;20.90;92.70
5226;DHT22;2632;51.666;7.146;2023-05-10T13:31:05;20.90;92.60
5226;DHT22;2632;51.666;7.146;2023-05-10T13:33:31;21.30;91.80
5226;DHT22;2632;51.666;7.146;2023-05-10T13:35:58;21.40;91.70
5226;DHT22;2632;51.666;7.146;2023-05-10T13:38:24;21.50;90.70
5226;DHT22;2632;51.666;7.146;2023-05-10T13:40:52;21.80;89.60
5226;DHT22;2632;51.666;7.146;2023-05-10T13:43:19;21.80;88.10
5226;DHT22;2632;51.666;7.146;2023-05-10T13:45:46;22.40;85.70
5226;DHT22;2632;51.666;7.146;2023-05-10T13:48:12;22.80;82.10
5226;DHT22;2632;51.666;7.146;2023-05-10T13:50:39;22.90;82.00
5226;DHT22;2632;51.666;7.146;2023-05-10T13:53:06;22.50;78.70
5226;DHT22;2632;51.666;7.146;2023-05-10T13:55:33;22.30;81.60
5226;DHT22;2632;51.666;7.146;2023-05-10T13:58:00;22.70;81.00
5226;DHT22;2632;51.666;7.146;2023-05-10T14:00:26;23.10;80.80
5226;DHT22;2632;51.666;7.146;2023-05-10T14:02:53;23.00;79.40
5226;DHT22;2632;51.666;7.146;2023-05-10T14:05:20;23.30;76.70
5226;DHT22;2632;51.666;7.146;2023-05-10T14:07:51;23.20;73.20
5226;DHT22;2632;51.666;7.146;2023-05-10T14:10:18;23.80;73.20
5226;DHT22;2632;51.666;7.146;2023-05-10T14:12:45;23.60;72.50
5226;DHT22;2632;51.666;7.146;2023-05-10T14:15:11;22.50;70.90
5226;DHT22;2632;51.666;7.146;2023-05-10T14:17:38;22.20;74.80
5226;DHT22;2632;51.666;7.146;2023-05-10T14:20:05;21.90;76.30
5226;DHT22;2632;51.666;7.146;2023-05-10T14:22:32;21.60;78.20
5226;DHT22;2632;51.666;7.146;2023-05-10T14:24:59;21.40;82.20
5226;DHT22;2632;51.666;7.146;2023-05-10T14:27:26;21.50;80.40
5226;DHT22;2632;51.666;7.146;2023-05-10T14:29:52;21.60;79.90
5226;DHT22;2632;51.666;7.146;2023-05-10T14:32:19;21.70;80.20
5226;DHT22;2632;51.666;7.146;2023-05-10T14:34:46;22.00;80.70
5226;DHT22;2632;51.666;7.146;2023-05-10T14:37:13;22.00;80.10
5226;DHT22;2632;51.666;7.146;2023-05-10T14:39:40;21.90;79.70
5226;DHT22;2632;51.666;7.146;2023-05-10T14:42:07;22.00;78.90
5226;DHT22;2632;51.666;7.146;2023-05-10T14:44:33;22.00;74.60
5226;DHT22;2632;51.666;7.146;2023-05-10T14:47:00;22.20;77.20
5226;DHT22;2632;51.666;7.146;2023-05-10T14:49:27;22.20;76.60
5226;DHT22;2632;51.666;7.146;2023-05-10T14:51:53;21.30;82.90
5226;DHT22;2632;51.666;7.146;2023-05-10T14:54:20;20.70;86.10
5226;DHT22;2632;51.666;7.146;2023-05-10T14:56:47;20.20;90.50
5226;DHT22;2632;51.666;7.146;2023-05-10T14:59:16;20.00;92.10
5226;DHT22;2632;51.666;7.146;2023-05-10T15:01:43;19.80;93.90
5226;DHT22;2632;51.666;7.146;2023-05-10T15:04:10;19.60;93.50
5226;DHT22;2632;51.666;7.146;2023-05-10T15:06:37;19.30;93.80
5226;DHT22;2632;51.666;7.146;2023-05-10T15:09:03;19.40;93.60
5226;DHT22;2632;51.666;7.146;2023-05-10T15:11:30;19.30;95.20
5226;DHT22;2632;51.666;7.146;2023-05-10T15:13:57;19.30;96.10
5226;DHT22;2632;51.666;7.146;2023-05-10T15:16:23;19.20;95.00
5226;DHT22;2632;51.666;7.146;2023-05-10T15:18:50;19.00;95.80
5226;DHT22;2632;51.666;7.146;2023-05-10T15:21:17;18.90;96.90
5226;DHT22;2632;51.666;7.146;2023-05-10T15:23:44;18.80;97.30
5226;DHT22;2632;51.666;7.146;2023-05-10T15:26:10;18.90;96.20
5226;DHT22;2632;51.666;7.146;2023-05-10T15:28:37;18.90;96.00
5226;DHT22;2632;51.666;7.146;2023-05-10T15:31:03;19.00;94.10
5226;DHT22;2632;51.666;7.146;2023-05-10T15:33:30;19.20;95.50
5226;DHT22;2632;51.666;7.146;2023-05-10T15:35:57;19.60;92.40
5226;DHT22;2632;51.666;7.146;2023-05-10T15:38:23;19.80;91.10
5226;DHT22;2632;51.666;7.146;2023-05-10T15:40:50;19.70;91.40
5226;DHT22;2632;51.666;7.146;2023-05-10T15:43:17;19.60;92.30
5226;DHT22;2632;51.666;7.146;2023-05-10T15:45:43;19.30;92.70
5226;DHT22;2632;51.666;7.146;2023-05-10T15:48:10;19.40;93.30
5226;DHT22;2632;51.666;7.146;2023-05-10T15:50:37;19.40;93.00
5226;DHT22;2632;51.666;7.146;2023-05-10T15:53:03;19.20;93.30
5226;DHT22;2632;51.666;7.146;2023-05-10T15:55:30;19.20;95.00
5226;DHT22;2632;51.666;7.146;2023-05-10T15:57:57;19.20;95.40
5226;DHT22;2632;51.666;7.146;2023-05-10T16:00:23;19.10;95.70
5226;DHT22;2632;51.666;7.146;2023-05-10T16:02:51;19.20;96.30
5226;DHT22;2632;51.666;7.146;2023-05-10T16:05:19;19.20;96.80
5226;DHT22;2632;51.666;7.146;2023-05-10T16:07:46;19.30;96.10
5226;DHT22;2632;51.666;7.146;2023-05-10T16:10:13;19.20;96.90
5226;DHT22;2632;51.666;7.146;2023-05-10T16:12:39;19.20;95.50
5226;DHT22;2632;51.666;7.146;2023-05-10T16:15:07;19.20;95.40
5226;DHT22;2632;51.666;7.146;2023-05-10T16:17:34;19.40;94.70
5226;DHT22;2632;51.666;7.146;2023-05-10T16:20:01;19.30;93.10
5226;DHT22;2632;51.666;7.146;2023-05-10T16:22:27;19.40;93.10
5226;DHT22;2632;51.666;7.146;2023-05-10T16:24:56;19.40;93.00
5226;DHT22;2632;51.666;7.146;2023-05-10T16:27:23;19.40;93.40
5226;DHT22;2632;51.666;7.146;2023-05-10T16:29:50;19.30;93.60
5226;DHT22;2632;51.666;7.146;2023-05-10T16:32:16;19.20;94.10
5226;DHT22;2632;51.666;7.146;2023-05-10T16:34:43;19.20;94.70
5226;DHT22;2632;51.666;7.146;2023-05-10T16:37:09;19.10;94.80
5226;DHT22;2632;51.666;7.146;2023-05-10T16:39:36;19.10;95.50
5226;DHT22;2632;51.666;7.146;2023-05-10T16:42:03;19.10;95.90